createdAt,value
2018-11-14T00:04:55.053Z,101506.30
2018-11-14T00:09:58.371Z,101507.68
2018-11-14T00:15:01.759Z,101504.91
2018-11-14T00:20:06.999Z,101511.23
2018-11-14T00:25:10.328Z,101508.26
2018-11-14T00:30:17.529Z,101518.39
2018-11-14T00:35:20.749Z,101518.59
2018-11-14T00:40:24.027Z,101523.53
2018-11-14T00:45:27.377Z,101521.16
2018-11-14T00:50:30.645Z,101518.98
2018-11-14T00:55:33.944Z,101530.30
2018-11-14T01:00:37.232Z,101536.45
2018-11-14T01:05:40.492Z,101545.95
2018-11-14T01:10:43.761Z,101545.58
2018-11-14T01:15:47.029Z,101541.00
2018-11-14T01:20:50.295Z,101545.77
2018-11-14T01:25:53.564Z,101548.36
2018-11-14T01:30:56.829Z,101559.27
2018-11-14T01:36:00.128Z,101556.69
2018-11-14T01:41:03.447Z,101557.47
2018-11-14T01:46:06.749Z,101555.08
2018-11-14T01:51:10.032Z,101553.91
2018-11-14T01:56:13.301Z,101554.48
2018-11-14T02:01:16.564Z,101564.00
2018-11-14T02:06:19.856Z,101558.85
2018-11-14T02:11:23.286Z,101567.19
2018-11-14T02:16:26.560Z,101564.00
2018-11-14T02:21:29.904Z,101570.94
2018-11-14T02:26:33.308Z,101571.34
2018-11-14T02:31:36.585Z,101575.11
2018-11-14T02:36:39.869Z,101574.72
2018-11-14T02:41:43.253Z,101574.12
2018-11-14T02:46:46.565Z,101575.53
2018-11-14T02:51:49.820Z,101577.50
2018-11-14T02:56:53.093Z,101564.41
2018-11-14T03:01:56.405Z,101562.23
2018-11-14T03:06:59.677Z,101559.84
2018-11-14T03:12:02.941Z,101570.36
2018-11-14T03:17:06.280Z,101569.71
2018-11-14T03:22:09.553Z,101576.70
2018-11-14T03:27:12.842Z,101572.88
2018-11-14T03:32:16.110Z,101575.91
2018-11-14T03:37:19.378Z,101575.11
2018-11-14T03:42:22.648Z,101583.65
2018-11-14T03:47:25.897Z,101587.81
2018-11-14T03:52:29.165Z,101582.39
2018-11-14T03:57:32.432Z,101578.84
2018-11-14T04:02:35.685Z,101578.69
2018-11-14T04:07:39.645Z,101568.91
2018-11-14T04:12:43.149Z,101562.62
2018-11-14T04:17:46.422Z,101557.06
2018-11-14T04:22:49.681Z,101561.44
2018-11-14T04:27:52.920Z,101561.59
2018-11-14T04:32:56.164Z,101558.78
2018-11-14T04:37:59.429Z,101559.05
2018-11-14T04:43:02.669Z,101553.06
2018-11-14T04:48:06.328Z,101552.05
2018-11-14T04:53:09.484Z,101561.38
2018-11-14T04:58:12.720Z,101558.61
2018-11-14T05:03:15.957Z,101559.20
2018-11-14T05:08:19.191Z,101561.81
2018-11-14T05:13:22.601Z,101558.61
2018-11-14T05:18:25.980Z,101555.04
2018-11-14T05:23:29.309Z,101562.95
2018-11-14T05:28:32.721Z,101568.70
2018-11-14T05:33:35.973Z,101573.47
2018-11-14T05:38:39.447Z,101574.47
2018-11-14T05:43:42.772Z,101560.80
2018-11-14T05:48:46.088Z,101559.59
2018-11-14T05:53:49.331Z,101562.95
2018-11-14T05:58:53.441Z,101560.56
2018-11-14T06:03:57.304Z,101562.16
2018-11-14T06:09:00.575Z,101572.88
2018-11-14T06:14:03.877Z,101575.25
2018-11-14T06:19:07.350Z,101571.88
2018-11-14T06:24:10.646Z,101572.67
2018-11-14T06:29:13.916Z,101572.06
2018-11-14T06:34:17.194Z,101578.02
2018-11-14T06:39:20.464Z,101581.00
2018-11-14T06:44:23.760Z,101573.66
2018-11-14T06:49:27.060Z,101572.86
2018-11-14T06:54:30.331Z,101580.80
2018-11-14T06:59:33.792Z,101585.38
2018-11-14T07:04:37.156Z,101591.52
2018-11-14T07:09:40.848Z,101587.74
2018-11-14T07:14:44.109Z,101603.63
2018-11-14T07:19:47.665Z,101610.16
2018-11-14T07:24:51.024Z,101606.80
2018-11-14T07:29:54.376Z,101605.79
2018-11-14T07:34:57.789Z,101600.45
2018-11-14T07:40:01.179Z,101614.13
2018-11-14T07:45:04.916Z,101614.51
2018-11-14T07:50:11.128Z,101612.73
2018-11-14T07:55:14.960Z,101605.17
2018-11-14T08:00:18.243Z,101610.91
2018-11-14T08:05:21.613Z,101624.14
2018-11-14T08:10:25.023Z,101624.80
2018-11-14T08:15:28.316Z,101624.54
2018-11-14T08:20:31.615Z,101621.66
2018-11-14T08:25:35.268Z,101629.76
2018-11-14T08:30:38.721Z,101623.20
2018-11-14T08:35:42.220Z,101634.05
2018-11-14T08:40:45.520Z,101636.11
2018-11-14T08:45:48.788Z,101634.55
2018-11-14T08:50:52.044Z,101641.11
2018-11-14T08:55:55.350Z,101647.45
2018-11-14T09:00:58.760Z,101657.50
2018-11-14T09:06:02.060Z,101656.02
2018-11-14T09:11:05.918Z,101650.30
2018-11-14T09:16:09.152Z,101658.20
2018-11-14T09:21:12.420Z,101662.00
2018-11-14T09:26:15.729Z,101672.55
2018-11-14T09:31:18.985Z,101680.87
2018-11-14T09:36:22.249Z,101665.22
2018-11-14T09:41:25.603Z,101671.95
2018-11-14T09:46:28.837Z,101661.23
2018-11-14T09:51:32.121Z,101667.55
2018-11-14T09:56:35.403Z,101671.33
2018-11-14T10:01:38.720Z,101659.88
2018-11-14T10:06:42.503Z,101650.36
2018-11-14T10:11:45.768Z,101649.78
2018-11-14T10:16:49.108Z,101636.10
2018-11-14T10:21:52.368Z,101634.50
2018-11-14T10:26:55.636Z,101625.97
2018-11-14T10:31:58.900Z,101618.44
2018-11-14T10:37:02.173Z,101615.07
2018-11-14T10:42:05.476Z,101611.73
2018-11-14T10:47:08.756Z,101610.55
2018-11-14T10:52:12.017Z,101614.89
2018-11-14T10:57:15.276Z,101617.08
2018-11-14T11:02:23.868Z,101624.23
2018-11-14T11:07:32.492Z,101620.86
2018-11-14T11:12:41.160Z,101622.86
2018-11-14T11:17:49.728Z,101625.44
2018-11-14T11:22:53.253Z,101622.25
2018-11-14T11:27:56.521Z,101617.11
2018-11-14T11:32:59.802Z,101605.61
2018-11-14T11:38:03.219Z,101602.03
2018-11-14T11:43:06.726Z,101599.84
2018-11-14T11:48:10.057Z,101596.73
2018-11-14T11:53:13.376Z,101593.39
2018-11-14T11:58:16.685Z,101585.44
2018-11-14T12:03:20.004Z,101585.86
2018-11-14T12:08:23.312Z,101577.72
2018-11-14T12:13:26.623Z,101581.68
2018-11-14T12:18:29.928Z,101574.92
2018-11-14T12:23:33.451Z,101580.66
2018-11-14T12:28:36.702Z,101585.84
2018-11-14T12:33:40.122Z,101589.83
2018-11-14T12:38:43.680Z,101595.40
2018-11-14T12:43:46.924Z,101583.66
2018-11-14T12:48:50.236Z,101587.83
2018-11-14T12:53:53.546Z,101583.89
2018-11-14T12:58:56.803Z,101583.28
2018-11-14T13:04:00.090Z,101571.80
2018-11-14T13:09:04.145Z,101555.53
2018-11-14T13:14:07.413Z,101545.20
2018-11-14T13:19:10.708Z,101536.25
2018-11-14T13:24:13.983Z,101536.27
2018-11-14T13:29:17.864Z,101536.08
2018-11-14T13:34:22.058Z,101527.33
2018-11-14T13:39:25.380Z,101533.67
2018-11-14T13:44:28.685Z,101536.66
2018-11-14T13:49:32.604Z,101530.90
2018-11-14T13:54:35.666Z,101521.37
2018-11-14T13:59:38.985Z,101504.91
2018-11-14T14:04:42.253Z,101517.20
2018-11-14T14:09:45.521Z,101516.61
2018-11-14T14:14:49.952Z,101522.58
2018-11-14T14:19:53.219Z,101525.94
2018-11-14T14:24:56.489Z,101524.56
2018-11-14T14:29:59.773Z,101530.32
2018-11-14T14:35:07.009Z,101533.08
2018-11-14T14:40:12.585Z,101531.91
2018-11-14T14:45:17.428Z,101538.85
2018-11-14T14:50:21.054Z,101547.56
2018-11-14T14:55:25.316Z,101559.48
2018-11-14T15:00:28.778Z,101557.72
2018-11-14T15:05:32.083Z,101550.95
2018-11-14T15:10:35.596Z,101549.73
2018-11-14T15:15:38.936Z,101550.58
2018-11-14T15:20:42.198Z,101548.16
2018-11-14T15:25:45.483Z,101548.19
2018-11-14T15:30:48.781Z,101555.33
2018-11-14T15:35:52.181Z,101547.19
2018-11-14T15:40:55.445Z,101546.00
2018-11-14T15:45:58.688Z,101552.14
2018-11-14T15:51:02.101Z,101556.53
2018-11-14T15:56:05.408Z,101552.36
2018-11-14T16:01:08.782Z,101544.40
2018-11-14T16:06:12.021Z,101549.38
2018-11-14T16:11:15.265Z,101551.34
2018-11-14T16:16:18.694Z,101558.31
2018-11-14T16:21:23.488Z,101557.73
2018-11-14T16:26:27.009Z,101546.98
2018-11-14T16:31:30.488Z,101530.48
2018-11-14T16:36:34.233Z,101526.11
2018-11-14T16:41:37.469Z,101526.51
2018-11-14T16:46:40.774Z,101530.70
2018-11-14T16:51:44.101Z,101542.41
2018-11-14T16:56:47.581Z,101541.02
2018-11-14T17:01:50.937Z,101538.03
2018-11-14T17:06:54.201Z,101542.81
2018-11-14T17:11:57.478Z,101537.05
2018-11-14T17:17:01.983Z,101539.84
2018-11-14T17:22:05.785Z,101541.82
2018-11-14T17:27:09.024Z,101532.48
2018-11-14T17:32:12.276Z,101537.45
2018-11-14T17:37:15.530Z,101525.31
2018-11-14T17:42:18.905Z,101517.99
2018-11-14T17:47:22.145Z,101533.29
2018-11-14T17:52:25.389Z,101525.16
2018-11-14T17:57:28.628Z,101524.33
2018-11-14T18:02:31.865Z,101518.58
2018-11-14T18:07:35.180Z,101515.42
2018-11-14T18:12:38.530Z,101514.63
2018-11-14T18:17:42.229Z,101502.92
2018-11-14T18:22:46.172Z,101523.56
2018-11-14T18:27:49.505Z,101539.66
2018-11-14T18:32:53.388Z,101533.50
2018-11-14T18:37:57.674Z,101551.36
2018-11-14T18:43:01.060Z,101553.92
2018-11-14T18:48:05.286Z,101554.94
2018-11-14T18:53:08.948Z,101555.91
2018-11-14T18:58:12.626Z,101554.34
2018-11-14T19:03:16.643Z,101547.97
2018-11-14T19:08:20.392Z,101542.41
2018-11-14T19:13:23.710Z,101542.61
2018-11-14T19:18:26.995Z,101540.03
2018-11-14T19:23:30.527Z,101539.03
2018-11-14T19:28:33.816Z,101548.77
2018-11-14T19:33:37.069Z,101551.94
2018-11-14T19:38:40.320Z,101551.94
2018-11-14T19:43:43.573Z,101551.14
2018-11-14T19:48:47.048Z,101545.40
2018-11-14T19:53:50.464Z,101546.38
2018-11-14T19:58:53.704Z,101550.16
2018-11-14T20:03:56.945Z,101554.34
2018-11-14T20:09:00.196Z,101551.95
2018-11-14T20:14:03.616Z,101552.33
2018-11-14T20:19:07.552Z,101562.28
2018-11-14T20:24:10.801Z,101554.13
2018-11-14T20:29:14.037Z,101547.79
2018-11-14T20:34:17.525Z,101545.80
2018-11-14T20:39:20.772Z,101535.86
2018-11-14T20:44:24.065Z,101534.88
2018-11-14T20:49:27.306Z,101539.64
2018-11-14T20:54:30.701Z,101553.73
2018-11-14T20:59:33.961Z,101546.78
2018-11-14T21:04:37.206Z,101535.28
2018-11-14T21:09:41.051Z,101533.88
2018-11-14T21:14:44.281Z,101527.75
2018-11-14T21:19:47.528Z,101536.25
2018-11-14T21:24:50.925Z,101541.05
2018-11-14T21:29:54.304Z,101541.44
2018-11-14T21:34:57.744Z,101544.59
2018-11-14T21:40:01.163Z,101536.66
2018-11-14T21:45:04.538Z,101547.37
2018-11-14T21:50:08.048Z,101552.14
2018-11-14T21:55:12.384Z,101545.00
2018-11-14T22:00:18.269Z,101536.47
2018-11-14T22:05:21.606Z,101525.95
2018-11-14T22:10:25.624Z,101534.67
2018-11-14T22:15:29.745Z,101526.94
2018-11-14T22:20:33.126Z,101518.59
2018-11-14T22:25:36.393Z,101516.20
2018-11-14T22:30:39.680Z,101509.27
2018-11-14T22:35:42.972Z,101513.43
2018-11-14T22:40:46.241Z,101514.24
2018-11-14T22:45:49.580Z,101517.61
2018-11-14T22:50:52.845Z,101518.41
2018-11-14T22:55:56.347Z,101518.61
2018-11-14T23:01:00.537Z,101508.89
2018-11-14T23:06:03.830Z,101517.61
2018-11-14T23:11:07.408Z,101513.04
2018-11-14T23:16:10.723Z,101508.67
2018-11-14T23:21:14.018Z,101506.69
2018-11-14T23:26:17.365Z,101501.94
2018-11-14T23:31:21.159Z,101505.52
2018-11-14T23:36:24.544Z,101507.08
2018-11-14T23:41:27.810Z,101507.30
2018-11-14T23:46:31.117Z,101496.17
2018-11-14T23:51:34.721Z,101502.33
2018-11-14T23:56:37.987Z,101502.72
